createdAt,value
2023-04-01T00:01:04.545Z,0.40
2023-04-01T00:03:37.142Z,0.50
2023-04-01T00:06:09.910Z,0.50
2023-04-01T00:08:41.761Z,0.50
2023-04-01T00:11:14.281Z,0.50
2023-04-01T00:13:46.336Z,0.27
2023-04-01T00:16:22.336Z,0.20
2023-04-01T00:18:54.514Z,0.60
2023-04-01T00:21:26.624Z,0.33
2023-04-01T00:23:58.748Z,0.30
2023-04-01T00:26:30.466Z,0.40
2023-04-01T00:29:02.262Z,0.43
2023-04-01T00:31:34.047Z,0.50
2023-04-01T00:34:06.054Z,0.50
2023-04-01T00:36:38.073Z,0.40
2023-04-01T00:39:10.191Z,0.70
2023-04-01T00:41:42.215Z,0.40
2023-04-01T00:44:23.455Z,0.50
2023-04-01T00:46:55.266Z,0.37
2023-04-01T00:49:31.984Z,0.50
2023-04-01T00:52:06.696Z,0.50
2023-04-01T00:54:39.918Z,0.47
2023-04-01T00:57:31.661Z,0.50
2023-04-01T01:00:08.305Z,0.47
2023-04-01T01:02:43.805Z,0.50
2023-04-01T01:05:17.749Z,0.30
2023-04-01T01:08:13.258Z,0.60
2023-04-01T01:10:49.533Z,0.47
2023-04-01T01:13:55.065Z,0.60
2023-04-01T01:16:34.273Z,0.40
2023-04-01T01:19:39.507Z,0.23
2023-04-01T01:22:37.265Z,0.17
2023-04-01T01:25:15.164Z,0.30
2023-04-01T01:27:59.609Z,0.23
2023-04-01T01:30:37.534Z,0.30
2023-04-01T01:33:28.255Z,0.10
2023-04-01T01:36:02.960Z,0.30
2023-04-01T01:38:36.467Z,0.30
2023-04-01T01:41:10.966Z,0.10
2023-04-01T01:43:46.052Z,0.37
2023-04-01T01:46:24.278Z,0.20
2023-04-01T01:48:57.558Z,0.20
2023-04-01T01:51:29.475Z,0.13
2023-04-01T01:54:01.174Z,0.20
2023-04-01T01:56:36.165Z,0.27
2023-04-01T01:59:11.527Z,0.30
2023-04-01T02:01:47.629Z,0.43
2023-04-01T02:04:20.660Z,0.20
2023-04-01T02:07:02.352Z,0.17
2023-04-01T02:09:35.283Z,0.30
2023-04-01T02:12:10.451Z,0.20
2023-04-01T02:14:45.519Z,0.30
2023-04-01T02:17:24.538Z,0.40
2023-04-01T02:20:02.397Z,0.30
2023-04-01T02:22:45.433Z,0.20
2023-04-01T02:25:21.708Z,0.07
2023-04-01T02:27:56.131Z,0.40
2023-04-01T02:30:30.485Z,0.10
2023-04-01T02:33:03.971Z,0.30
2023-04-01T02:35:39.715Z,0.20
2023-04-01T02:38:15.331Z,0.30
2023-04-01T02:40:51.356Z,0.40
2023-04-01T02:43:23.231Z,0.20
2023-04-01T02:45:55.361Z,0.43
2023-04-01T02:48:27.085Z,0.23
2023-04-01T02:50:59.004Z,0.30
2023-04-01T02:53:30.754Z,0.10
2023-04-01T02:56:02.538Z,0.30
2023-04-01T02:58:34.408Z,0.40
2023-04-01T03:01:06.494Z,0.50
2023-04-01T03:03:38.368Z,0.10
2023-04-01T03:06:12.988Z,0.30
2023-04-01T03:08:45.598Z,0.30
2023-04-01T03:11:17.434Z,0.40
2023-04-01T03:13:49.752Z,0.30
2023-04-01T03:16:21.537Z,0.20
2023-04-01T03:18:57.699Z,0.40
2023-04-01T03:21:29.629Z,0.40
2023-04-01T03:24:01.453Z,0.13
2023-04-01T03:26:34.246Z,0.20
2023-04-01T03:29:06.755Z,0.50
2023-04-01T03:31:38.602Z,0.50
2023-04-01T03:34:10.873Z,0.40
2023-04-01T03:36:42.699Z,0.20
2023-04-01T03:39:14.689Z,0.20
2023-04-01T03:41:47.583Z,0.30
2023-04-01T03:44:19.308Z,0.20
2023-04-01T03:46:54.673Z,0.27
2023-04-01T03:49:26.983Z,0.30
2023-04-01T03:51:59.246Z,0.20
2023-04-01T03:54:31.046Z,0.20
2023-04-01T03:57:02.877Z,0.50
2023-04-01T03:59:35.402Z,0.33
2023-04-01T04:02:07.702Z,0.30
2023-04-01T04:04:39.645Z,0.30
2023-04-01T04:07:11.665Z,0.30
2023-04-01T04:10:06.931Z,0.40
2023-04-01T04:12:38.787Z,0.60
2023-04-01T04:15:11.329Z,0.43
2023-04-01T04:17:43.310Z,0.40
2023-04-01T04:20:15.711Z,0.40
2023-04-01T04:22:47.589Z,0.50
2023-04-01T04:25:19.369Z,0.20
2023-04-01T04:27:51.310Z,0.20
2023-04-01T04:30:23.140Z,0.30
2023-04-01T04:32:54.965Z,0.17
2023-04-01T04:35:26.728Z,0.40
2023-04-01T04:37:58.772Z,0.40
2023-04-01T04:40:30.651Z,0.47
2023-04-01T04:43:02.401Z,0.30
2023-04-01T04:45:34.452Z,0.20
2023-04-01T04:48:19.242Z,0.30
2023-04-01T04:50:51.668Z,0.23
2023-04-01T04:53:26.376Z,0.50
2023-04-01T04:55:58.158Z,0.50
2023-04-01T04:58:49.625Z,0.20
2023-04-01T05:01:26.203Z,0.20
2023-04-01T05:03:58.361Z,0.17
2023-04-01T05:06:30.830Z,0.40
2023-04-01T05:09:02.712Z,0.30
2023-04-01T05:11:34.469Z,0.30
2023-04-01T05:14:06.231Z,0.20
2023-04-01T05:16:38.710Z,0.27
2023-04-01T05:19:10.561Z,0.13
2023-04-01T05:21:42.601Z,0.20
2023-04-01T05:24:14.426Z,0.10
2023-04-01T05:26:46.247Z,0.10
2023-04-01T05:29:18.174Z,0.30
2023-04-01T05:31:53.258Z,0.20
2023-04-01T05:34:25.116Z,0.10
2023-04-01T05:36:56.912Z,0.30
2023-04-01T05:39:28.667Z,0.20
2023-04-01T05:42:00.603Z,0.10
2023-04-01T05:44:32.918Z,0.30
2023-04-01T05:47:07.574Z,0.33
2023-04-01T05:49:39.321Z,0.33
2023-04-01T05:52:11.686Z,0.00
2023-04-01T05:54:43.612Z,0.30
2023-04-01T05:57:15.484Z,0.30
2023-04-01T05:59:47.359Z,0.30
2023-04-01T06:02:19.779Z,0.10
2023-04-01T06:05:03.187Z,0.30
2023-04-01T06:07:35.031Z,0.10
2023-04-01T06:10:17.727Z,0.20
2023-04-01T06:13:13.371Z,0.30
2023-04-01T06:15:52.888Z,0.53
2023-04-01T06:18:46.558Z,0.13
2023-04-01T06:21:36.738Z,0.30
2023-04-01T06:24:37.377Z,0.30
2023-04-01T06:27:17.525Z,0.40
2023-04-01T06:30:17.523Z,0.33
2023-04-01T06:33:01.354Z,0.30
2023-04-01T06:36:08.379Z,0.30
2023-04-01T06:39:13.087Z,0.20
2023-04-01T06:41:56.963Z,0.23
2023-04-01T06:44:49.734Z,0.17
2023-04-01T06:47:49.925Z,0.27
2023-04-01T06:50:59.191Z,0.10
2023-04-01T06:54:31.040Z,0.00
2023-04-01T06:57:39.779Z,0.10
2023-04-01T07:00:40.117Z,0.20
2023-04-01T07:03:30.459Z,0.10
2023-04-01T07:06:06.267Z,0.20
2023-04-01T07:08:45.726Z,0.20
2023-04-01T07:11:29.909Z,0.10
2023-04-01T07:14:31.879Z,0.00
2023-04-01T07:17:24.387Z,0.30
2023-04-01T07:20:02.146Z,0.20
2023-04-01T07:22:50.240Z,0.10
2023-04-01T07:25:40.708Z,0.30
2023-04-01T07:28:35.433Z,0.10
2023-04-01T07:31:39.882Z,0.10
2023-04-01T07:34:29.176Z,0.10
2023-04-01T07:37:06.176Z,0.30
2023-04-01T07:39:49.882Z,0.13
2023-04-01T07:43:15.712Z,0.20
2023-04-01T07:46:24.190Z,0.30
2023-04-01T07:49:12.140Z,0.20
2023-04-01T07:51:49.666Z,0.17
2023-04-01T07:54:36.659Z,0.40
2023-04-01T07:57:08.436Z,0.33
2023-04-01T08:00:00.045Z,0.10
2023-04-01T08:03:11.230Z,0.20
2023-04-01T08:06:01.066Z,0.00
2023-04-01T08:09:13.167Z,0.30
2023-04-01T08:12:39.882Z,0.30
2023-04-01T08:15:40.971Z,0.20
2023-04-01T08:18:32.297Z,0.10
2023-04-01T08:21:11.561Z,0.20
2023-04-01T08:23:48.243Z,0.20
2023-04-01T08:26:33.119Z,0.30
2023-04-01T08:29:12.845Z,0.30
2023-04-01T08:31:56.940Z,0.60
2023-04-01T08:34:34.663Z,0.20
2023-04-01T08:37:25.233Z,0.30
2023-04-01T08:40:21.954Z,0.30
2023-04-01T08:43:06.274Z,0.20
2023-04-01T08:46:14.538Z,0.20
2023-04-01T08:49:12.840Z,0.30
2023-04-01T08:51:53.024Z,0.10
2023-04-01T08:55:03.222Z,0.30
2023-04-01T08:58:10.087Z,0.27
2023-04-01T09:00:51.557Z,0.70
2023-04-01T09:04:06.119Z,0.80
2023-04-01T09:07:04.531Z,0.30
2023-04-01T09:10:14.509Z,0.40
2023-04-01T09:13:21.129Z,0.20
2023-04-01T09:16:14.444Z,0.40
2023-04-01T09:19:11.555Z,0.20
2023-04-01T09:21:46.687Z,0.13
2023-04-01T09:24:36.449Z,0.30
2023-04-01T09:27:31.896Z,0.10
2023-04-01T09:30:32.774Z,0.20
2023-04-01T09:33:44.712Z,0.30
2023-04-01T09:36:48.353Z,0.20
2023-04-01T09:39:44.472Z,0.30
2023-04-01T09:42:44.785Z,0.40
2023-04-01T09:45:43.570Z,0.10
2023-04-01T09:48:38.862Z,0.20
2023-04-01T09:51:41.909Z,0.30
2023-04-01T09:54:59.564Z,0.20
2023-04-01T09:57:41.420Z,0.20
2023-04-01T10:00:31.477Z,0.10
2023-04-01T10:03:36.054Z,0.30
2023-04-01T10:06:35.551Z,0.13
2023-04-01T10:09:10.659Z,0.20
2023-04-01T10:11:56.374Z,0.13
2023-04-01T10:14:57.605Z,0.13
2023-04-01T10:17:35.308Z,0.30
2023-04-01T10:20:07.841Z,0.10
2023-04-01T10:23:19.109Z,0.10
2023-04-01T10:26:18.031Z,0.40
2023-04-01T10:29:14.343Z,0.20
2023-04-01T10:32:17.038Z,0.10
2023-04-01T10:35:26.356Z,0.20
2023-04-01T10:38:16.696Z,0.23
2023-04-01T10:41:07.317Z,0.20
2023-04-01T10:44:56.795Z,0.20
2023-04-01T10:47:56.764Z,0.20
2023-04-01T10:50:59.807Z,0.30
2023-04-01T10:53:59.342Z,0.20
2023-04-01T10:57:21.887Z,0.20
2023-04-01T11:00:40.620Z,0.30
2023-04-01T11:03:56.217Z,0.30
2023-04-01T11:07:17.195Z,0.80
2023-04-01T11:09:52.262Z,0.50
2023-04-01T11:13:02.530Z,0.50
2023-04-01T11:16:08.450Z,0.70
2023-04-01T11:18:59.408Z,1.07
2023-04-01T11:22:30.545Z,1.50
2023-04-01T11:25:36.043Z,0.47
2023-04-01T11:28:35.355Z,0.30
2023-04-01T11:31:18.077Z,0.43
2023-04-01T11:34:09.026Z,1.20
2023-04-01T11:37:00.563Z,1.50
2023-04-01T11:40:12.231Z,0.30
2023-04-01T11:43:32.231Z,0.20
2023-04-01T11:46:32.372Z,0.10
2023-04-01T11:49:18.066Z,0.30
2023-04-01T11:52:11.812Z,0.27
2023-04-01T11:55:03.007Z,0.10
2023-04-01T11:58:06.173Z,0.20
2023-04-01T12:01:00.476Z,0.87
2023-04-01T12:03:50.841Z,0.13
2023-04-01T12:06:38.090Z,0.20
2023-04-01T12:09:21.748Z,0.10
2023-04-01T12:12:12.106Z,0.20
2023-04-01T12:14:55.448Z,0.10
2023-04-01T12:17:27.220Z,0.20
2023-04-01T12:20:13.918Z,0.20
2023-04-01T12:23:04.386Z,0.10
2023-04-01T12:25:51.195Z,0.23
2023-04-01T12:28:34.673Z,0.20
2023-04-01T12:31:20.383Z,0.10
2023-04-01T12:34:10.546Z,0.40
2023-04-01T12:37:08.997Z,0.20
2023-04-01T12:39:50.599Z,0.17
2023-04-01T12:42:53.030Z,0.30
2023-04-01T12:45:37.036Z,0.27
2023-04-01T12:48:32.466Z,0.10
2023-04-01T12:51:16.512Z,0.20
2023-04-01T12:54:20.092Z,0.10
2023-04-01T12:57:29.684Z,0.30
2023-04-01T13:00:04.727Z,0.30
2023-04-01T13:02:58.537Z,0.10
2023-04-01T13:05:51.840Z,0.17
2023-04-01T13:08:29.419Z,0.20
2023-04-01T13:11:41.631Z,0.20
2023-04-01T13:14:32.059Z,0.40
2023-04-01T13:17:16.245Z,0.20
2023-04-01T13:20:06.533Z,0.30
2023-04-01T13:22:53.575Z,0.10
2023-04-01T13:26:13.829Z,0.30
2023-04-01T13:29:05.022Z,0.10
2023-04-01T13:31:50.898Z,0.17
2023-04-01T13:34:31.426Z,0.20
2023-04-01T13:37:24.889Z,0.20
2023-04-01T13:40:12.257Z,0.10
2023-04-01T13:42:50.372Z,0.20
2023-04-01T13:45:39.358Z,0.50
2023-04-01T13:48:25.941Z,0.30
2023-04-01T13:51:09.094Z,0.40
2023-04-01T13:54:10.458Z,0.30
2023-04-01T13:57:16.547Z,0.47
2023-04-01T13:59:54.217Z,0.50
2023-04-01T14:02:42.613Z,0.40
2023-04-01T14:05:43.169Z,0.60
2023-04-01T14:08:33.401Z,0.40
2023-04-01T14:11:24.021Z,0.67
2023-04-01T14:14:38.956Z,0.60
2023-04-01T14:17:51.309Z,0.70
2023-04-01T14:20:34.899Z,0.63
2023-04-01T14:23:44.915Z,0.53
2023-04-01T14:26:33.248Z,0.70
2023-04-01T14:29:13.889Z,0.20
2023-04-01T14:32:09.006Z,0.50
2023-04-01T14:35:05.827Z,0.97
2023-04-01T14:37:56.086Z,1.43
2023-04-01T14:40:56.765Z,2.80
2023-04-01T14:43:34.320Z,4.03
2023-04-01T14:46:24.171Z,1.40
2023-04-01T14:49:21.401Z,0.40
2023-04-01T14:51:54.168Z,0.30
2023-04-01T14:54:36.772Z,0.30
2023-04-01T14:57:25.253Z,0.30
2023-04-01T15:00:18.098Z,0.40
2023-04-01T15:03:03.223Z,0.63
2023-04-01T15:05:52.852Z,0.60
2023-04-01T15:08:31.070Z,0.30
2023-04-01T15:11:17.654Z,1.03
2023-04-01T15:14:01.520Z,0.47
2023-04-01T15:16:55.362Z,0.57
2023-04-01T15:19:32.778Z,1.20
2023-04-01T15:22:22.790Z,1.50
2023-04-01T15:25:24.484Z,1.00
2023-04-01T15:28:07.654Z,1.40
2023-04-01T15:31:10.446Z,1.07
2023-04-01T15:33:53.183Z,1.50
2023-04-01T15:36:42.231Z,1.87
2023-04-01T15:39:19.713Z,1.53
2023-04-01T15:42:18.796Z,0.80
2023-04-01T15:45:00.512Z,0.90
2023-04-01T15:47:38.813Z,1.10
2023-04-01T15:50:29.999Z,1.33
2023-04-01T15:53:27.434Z,0.53
2023-04-01T15:56:17.320Z,0.50
2023-04-01T15:58:58.853Z,0.70
2023-04-01T16:01:37.566Z,0.83
2023-04-01T16:04:29.006Z,0.77
2023-04-01T16:07:41.507Z,2.20
2023-04-01T16:10:47.103Z,2.07
2023-04-01T16:13:37.146Z,1.00
2023-04-01T16:16:49.462Z,0.83
2023-04-01T16:19:38.670Z,0.63
2023-04-01T16:22:24.007Z,0.50
2023-04-01T16:25:24.121Z,0.87
2023-04-01T16:28:25.229Z,0.80
2023-04-01T16:31:10.300Z,0.80
2023-04-01T16:34:07.554Z,0.40
2023-04-01T16:36:47.497Z,0.50
2023-04-01T16:39:41.769Z,0.67
2023-04-01T16:42:51.829Z,0.50
2023-04-01T16:45:29.188Z,2.87
2023-04-01T16:48:26.769Z,1.63
2023-04-01T16:51:12.342Z,0.20
2023-04-01T16:53:51.772Z,0.23
2023-04-01T16:56:37.232Z,0.53
2023-04-01T16:59:20.858Z,0.20
2023-04-01T17:02:10.402Z,0.50
2023-04-01T17:04:54.483Z,0.73
2023-04-01T17:07:44.557Z,0.67
2023-04-01T17:10:30.439Z,0.97
2023-04-01T17:13:44.744Z,0.70
2023-04-01T17:16:26.213Z,0.70
2023-04-01T17:19:23.835Z,0.30
2023-04-01T17:22:05.349Z,0.50
2023-04-01T17:24:53.311Z,0.57
2023-04-01T17:27:47.869Z,0.70
2023-04-01T17:30:47.025Z,0.60
2023-04-01T17:33:43.358Z,0.50
2023-04-01T17:36:34.277Z,0.70
2023-04-01T17:39:27.793Z,0.50
2023-04-01T17:42:11.408Z,0.33
2023-04-01T17:45:06.397Z,0.53
2023-04-01T17:47:51.140Z,0.60
2023-04-01T17:50:24.416Z,0.50
2023-04-01T17:53:16.408Z,0.50
2023-04-01T17:56:18.479Z,0.60
2023-04-01T17:59:10.527Z,0.40
2023-04-01T18:02:46.830Z,0.63
2023-04-01T18:05:46.247Z,0.50
2023-04-01T18:08:46.157Z,0.60
2023-04-01T18:11:33.453Z,0.53
2023-04-01T18:14:20.096Z,0.70
2023-04-01T18:17:13.485Z,0.90
2023-04-01T18:19:48.298Z,0.80
2023-04-01T18:22:26.857Z,0.60
2023-04-01T18:25:27.731Z,0.73
2023-04-01T18:28:35.926Z,1.07
2023-04-01T18:31:20.396Z,0.90
2023-04-01T18:34:27.253Z,0.67
2023-04-01T18:37:16.838Z,0.60
2023-04-01T18:40:04.851Z,0.53
2023-04-01T18:42:42.547Z,0.50
2023-04-01T18:45:22.765Z,0.30
2023-04-01T18:48:17.907Z,0.60
2023-04-01T18:50:56.874Z,1.60
2023-04-01T18:53:54.713Z,0.73
2023-04-01T18:56:40.772Z,0.80
2023-04-01T18:59:21.560Z,0.80
2023-04-01T19:02:21.905Z,0.60
2023-04-01T19:05:01.534Z,0.30
2023-04-01T19:07:33.186Z,0.53
2023-04-01T19:10:22.970Z,0.40
2023-04-01T19:12:57.460Z,0.40
2023-04-01T19:15:40.828Z,0.27
2023-04-01T19:18:27.523Z,0.20
2023-04-01T19:21:17.332Z,0.20
2023-04-01T19:24:35.663Z,0.10
2023-04-01T19:27:30.297Z,0.40
2023-04-01T19:30:23.778Z,0.40
2023-04-01T19:33:26.588Z,0.20
2023-04-01T19:36:19.633Z,0.10
2023-04-01T19:38:54.485Z,0.17
2023-04-01T19:41:52.607Z,0.40
2023-04-01T19:45:06.775Z,0.50
2023-04-01T19:48:06.486Z,0.30
2023-04-01T19:51:06.674Z,0.40
2023-04-01T19:53:52.386Z,0.40
2023-04-01T19:56:32.297Z,0.40
2023-04-01T19:59:29.604Z,0.43
2023-04-01T20:02:12.115Z,0.43
2023-04-01T20:04:49.056Z,0.70
2023-04-01T20:07:28.725Z,0.40
2023-04-01T20:10:16.252Z,0.50
2023-04-01T20:12:58.919Z,0.47
2023-04-01T20:15:46.601Z,0.70
2023-04-01T20:18:27.465Z,0.47
2023-04-01T20:21:04.354Z,0.20
2023-04-01T20:23:52.231Z,0.37
2023-04-01T20:26:30.328Z,0.40
2023-04-01T20:29:48.046Z,0.40
2023-04-01T20:32:33.362Z,0.33
2023-04-01T20:35:08.319Z,0.40
2023-04-01T20:37:50.910Z,0.50
2023-04-01T20:40:37.800Z,0.30
2023-04-01T20:43:25.450Z,0.50
2023-04-01T20:46:28.198Z,0.37
2023-04-01T20:49:26.067Z,0.23
2023-04-01T20:52:21.063Z,0.27
2023-04-01T20:55:09.442Z,0.57
2023-04-01T20:57:57.924Z,0.33
2023-04-01T21:00:44.084Z,0.67
2023-04-01T21:03:30.474Z,0.50
2023-04-01T21:06:21.681Z,0.50
2023-04-01T21:09:11.344Z,0.40
2023-04-01T21:12:06.930Z,0.30
2023-04-01T21:15:00.654Z,0.20
2023-04-01T21:17:45.988Z,0.30
2023-04-01T21:20:39.244Z,0.40
2023-04-01T21:23:10.922Z,0.20
2023-04-01T21:25:54.583Z,0.50
2023-04-01T21:28:51.309Z,0.27
2023-04-01T21:31:56.941Z,0.47
2023-04-01T21:34:52.718Z,0.23
2023-04-01T21:37:43.191Z,0.20
2023-04-01T21:40:39.063Z,0.43
2023-04-01T21:43:48.251Z,0.30
2023-04-01T21:46:38.113Z,0.40
2023-04-01T21:49:27.335Z,0.43
2023-04-01T21:52:27.383Z,0.37
2023-04-01T21:55:22.681Z,0.37
2023-04-01T21:58:29.585Z,0.20
2023-04-01T22:01:22.873Z,0.40
2023-04-01T22:04:16.435Z,0.30
2023-04-01T22:06:56.367Z,0.30
2023-04-01T22:09:47.579Z,0.20
2023-04-01T22:12:33.816Z,0.30
2023-04-01T22:15:30.606Z,0.30
2023-04-01T22:18:19.201Z,0.13
2023-04-01T22:20:58.295Z,0.10
2023-04-01T22:23:32.086Z,0.30
2023-04-01T22:26:16.414Z,0.20
2023-04-01T22:28:53.079Z,0.20
2023-04-01T22:31:34.484Z,0.30
2023-04-01T22:34:28.606Z,0.20
2023-04-01T22:37:22.999Z,0.20
2023-04-01T22:40:24.343Z,0.30
2023-04-01T22:43:13.682Z,0.30
2023-04-01T22:45:54.299Z,0.30
2023-04-01T22:48:48.678Z,0.30
2023-04-01T22:51:25.717Z,0.43
2023-04-01T22:54:21.697Z,0.30
2023-04-01T22:57:03.871Z,0.50
2023-04-01T22:59:58.200Z,0.60
2023-04-01T23:02:34.104Z,0.40
2023-04-01T23:05:12.338Z,0.67
2023-04-01T23:07:57.172Z,0.67
2023-04-01T23:10:33.730Z,0.60
2023-04-01T23:13:10.245Z,0.50
2023-04-01T23:15:42.788Z,0.70
2023-04-01T23:18:43.266Z,0.73
2023-04-01T23:21:19.269Z,0.40
2023-04-01T23:23:56.825Z,0.80
2023-04-01T23:26:56.968Z,0.70
2023-04-01T23:29:29.190Z,0.50
2023-04-01T23:32:02.654Z,0.70
2023-04-01T23:34:37.649Z,0.87
2023-04-01T23:37:13.155Z,0.80
2023-04-01T23:39:54.116Z,0.40
2023-04-01T23:42:41.434Z,0.50
2023-04-01T23:45:21.732Z,0.40
2023-04-01T23:47:53.623Z,0.50
2023-04-01T23:50:27.347Z,0.43
2023-04-01T23:53:32.689Z,0.30
2023-04-01T23:56:04.574Z,0.40
2023-04-01T23:58:44.847Z,0.30
